sensor_id;sensor_type;location;lat;lon;timestamp;P1;durP1;ratioP1;P2;durP2;ratioP2
71207;SDS011;58938;49.868;8.646;2023-12-29T00:00:15;8.80;;;4.00;;
71207;SDS011;58938;49.868;8.646;2023-12-29T00:02:41;7.72;;;4.10;;
71207;SDS011;58938;49.868;8.646;2023-12-29T00:05:07;7.03;;;4.32;;
71207;SDS011;58938;49.868;8.646;2023-12-29T00:07:33;6.17;;;4.03;;
71207;SDS011;58938;49.868;8.646;2023-12-29T00:09:59;6.07;;;3.15;;
71207;SDS011;58938;49.868;8.646;2023-12-29T00:12:25;6.40;;;3.58;;
71207;SDS011;58938;49.868;8.646;2023-12-29T00:14:51;6.15;;;4.00;;
71207;SDS011;58938;49.868;8.646;2023-12-29T00:17:17;7.67;;;4.27;;
71207;SDS011;58938;49.868;8.646;2023-12-29T00:19:43;7.47;;;4.90;;
71207;SDS011;58938;49.868;8.646;2023-12-29T00:22:09;7.55;;;3.92;;
71207;SDS011;58938;49.868;8.646;2023-12-29T00:24:35;7.55;;;4.18;;
71207;SDS011;58938;49.868;8.646;2023-12-29T00:27:01;8.13;;;4.75;;
71207;SDS011;58938;49.868;8.646;2023-12-29T00:29:27;7.93;;;4.10;;
71207;SDS011;58938;49.868;8.646;2023-12-29T00:31:57;9.65;;;4.50;;
71207;SDS011;58938;49.868;8.646;2023-12-29T00:34:25;8.18;;;4.30;;
71207;SDS011;58938;49.868;8.646;2023-12-29T00:36:51;6.78;;;4.70;;
71207;SDS011;58938;49.868;8.646;2023-12-29T00:39:17;10.48;;;4.88;;
71207;SDS011;58938;49.868;8.646;2023-12-29T00:41:43;9.03;;;5.67;;
71207;SDS011;58938;49.868;8.646;2023-12-29T00:44:09;8.85;;;5.50;;
71207;SDS011;58938;49.868;8.646;2023-12-29T00:46:35;10.40;;;6.03;;
71207;SDS011;58938;49.868;8.646;2023-12-29T00:49:01;8.60;;;4.60;;
71207;SDS011;58938;49.868;8.646;2023-12-29T00:51:27;9.35;;;5.13;;
71207;SDS011;58938;49.868;8.646;2023-12-29T00:53:53;9.95;;;5.72;;
71207;SDS011;58938;49.868;8.646;2023-12-29T00:56:19;7.40;;;4.50;;
71207;SDS011;58938;49.868;8.646;2023-12-29T00:58:45;7.40;;;4.70;;
71207;SDS011;58938;49.868;8.646;2023-12-29T01:01:11;8.20;;;4.07;;
71207;SDS011;58938;49.868;8.646;2023-12-29T01:03:37;9.68;;;4.30;;
71207;SDS011;58938;49.868;8.646;2023-12-29T01:06:03;9.05;;;4.43;;
71207;SDS011;58938;49.868;8.646;2023-12-29T01:08:29;9.55;;;4.90;;
71207;SDS011;58938;49.868;8.646;2023-12-29T01:10:58;7.33;;;4.20;;
71207;SDS011;58938;49.868;8.646;2023-12-29T01:13:24;7.97;;;4.25;;
71207;SDS011;58938;49.868;8.646;2023-12-29T01:15:50;6.93;;;4.28;;
71207;SDS011;58938;49.868;8.646;2023-12-29T01:18:16;8.10;;;4.18;;
71207;SDS011;58938;49.868;8.646;2023-12-29T01:20:42;7.03;;;3.80;;
71207;SDS011;58938;49.868;8.646;2023-12-29T01:23:08;7.87;;;4.33;;
71207;SDS011;58938;49.868;8.646;2023-12-29T01:25:34;7.00;;;3.97;;
71207;SDS011;58938;49.868;8.646;2023-12-29T01:28:00;5.68;;;3.20;;
71207;SDS011;58938;49.868;8.646;2023-12-29T01:30:26;4.77;;;3.30;;
71207;SDS011;58938;49.868;8.646;2023-12-29T01:32:52;9.73;;;3.80;;
71207;SDS011;58938;49.868;8.646;2023-12-29T01:35:18;5.75;;;3.75;;
71207;SDS011;58938;49.868;8.646;2023-12-29T01:37:43;5.22;;;3.38;;
71207;SDS011;58938;49.868;8.646;2023-12-29T01:40:10;6.43;;;2.87;;
71207;SDS011;58938;49.868;8.646;2023-12-29T01:42:36;6.72;;;3.83;;
71207;SDS011;58938;49.868;8.646;2023-12-29T01:45:02;6.95;;;4.22;;
71207;SDS011;58938;49.868;8.646;2023-12-29T01:47:28;8.20;;;3.60;;
71207;SDS011;58938;49.868;8.646;2023-12-29T01:49:54;6.40;;;3.67;;
71207;SDS011;58938;49.868;8.646;2023-12-29T01:52:20;6.23;;;3.30;;
71207;SDS011;58938;49.868;8.646;2023-12-29T01:54:47;7.75;;;3.63;;
71207;SDS011;58938;49.868;8.646;2023-12-29T01:57:13;6.78;;;4.53;;
71207;SDS011;58938;49.868;8.646;2023-12-29T01:59:39;6.20;;;3.25;;
71207;SDS011;58938;49.868;8.646;2023-12-29T02:02:06;7.05;;;4.38;;
71207;SDS011;58938;49.868;8.646;2023-12-29T02:04:32;6.30;;;3.90;;
71207;SDS011;58938;49.868;8.646;2023-12-29T02:06:58;8.77;;;3.65;;
71207;SDS011;58938;49.868;8.646;2023-12-29T02:09:24;6.70;;;3.72;;
71207;SDS011;58938;49.868;8.646;2023-12-29T02:11:51;6.05;;;3.78;;
71207;SDS011;58938;49.868;8.646;2023-12-29T02:14:17;9.18;;;4.25;;
71207;SDS011;58938;49.868;8.646;2023-12-29T02:16:58;8.70;;;4.03;;
71207;SDS011;58938;49.868;8.646;2023-12-29T02:21:53;14.82;;;5.88;;
71207;SDS011;58938;49.868;8.646;2023-12-29T02:24:19;9.60;;;5.35;;
71207;SDS011;58938;49.868;8.646;2023-12-29T02:26:47;8.13;;;4.93;;
71207;SDS011;58938;49.868;8.646;2023-12-29T02:29:15;7.88;;;4.78;;
71207;SDS011;58938;49.868;8.646;2023-12-29T02:31:42;8.18;;;4.65;;
71207;SDS011;58938;49.868;8.646;2023-12-29T02:34:10;7.25;;;4.78;;
71207;SDS011;58938;49.868;8.646;2023-12-29T02:36:38;9.77;;;4.80;;
71207;SDS011;58938;49.868;8.646;2023-12-29T02:39:07;9.05;;;4.68;;
71207;SDS011;58938;49.868;8.646;2023-12-29T02:41:34;9.77;;;5.28;;
71207;SDS011;58938;49.868;8.646;2023-12-29T02:44:00;9.93;;;5.10;;
71207;SDS011;58938;49.868;8.646;2023-12-29T02:46:26;8.77;;;4.23;;
71207;SDS011;58938;49.868;8.646;2023-12-29T02:48:52;7.93;;;4.28;;
71207;SDS011;58938;49.868;8.646;2023-12-29T02:51:18;8.10;;;4.38;;
71207;SDS011;58938;49.868;8.646;2023-12-29T02:53:44;6.88;;;3.70;;
71207;SDS011;58938;49.868;8.646;2023-12-29T02:56:10;7.80;;;4.33;;
71207;SDS011;58938;49.868;8.646;2023-12-29T02:58:36;8.15;;;4.18;;
71207;SDS011;58938;49.868;8.646;2023-12-29T03:01:02;7.95;;;4.85;;
71207;SDS011;58938;49.868;8.646;2023-12-29T03:03:28;7.30;;;4.30;;
71207;SDS011;58938;49.868;8.646;2023-12-29T03:05:54;5.77;;;3.73;;
71207;SDS011;58938;49.868;8.646;2023-12-29T03:08:20;6.78;;;4.15;;
71207;SDS011;58938;49.868;8.646;2023-12-29T03:10:46;7.00;;;4.25;;
71207;SDS011;58938;49.868;8.646;2023-12-29T03:13:12;7.30;;;3.88;;
71207;SDS011;58938;49.868;8.646;2023-12-29T03:15:38;6.37;;;3.30;;
71207;SDS011;58938;49.868;8.646;2023-12-29T03:18:04;5.00;;;3.17;;
71207;SDS011;58938;49.868;8.646;2023-12-29T03:20:30;6.50;;;3.70;;
71207;SDS011;58938;49.868;8.646;2023-12-29T03:22:56;6.03;;;3.22;;
71207;SDS011;58938;49.868;8.646;2023-12-29T03:25:22;7.28;;;3.45;;
71207;SDS011;58938;49.868;8.646;2023-12-29T03:27:48;7.10;;;3.60;;
71207;SDS011;58938;49.868;8.646;2023-12-29T03:30:14;6.07;;;3.67;;
71207;SDS011;58938;49.868;8.646;2023-12-29T03:32:40;6.82;;;3.78;;
71207;SDS011;58938;49.868;8.646;2023-12-29T03:35:06;5.97;;;3.67;;
71207;SDS011;58938;49.868;8.646;2023-12-29T03:37:32;6.35;;;3.22;;
71207;SDS011;58938;49.868;8.646;2023-12-29T03:39:58;5.90;;;3.20;;
71207;SDS011;58938;49.868;8.646;2023-12-29T03:42:24;7.20;;;2.70;;
71207;SDS011;58938;49.868;8.646;2023-12-29T03:44:49;5.87;;;3.27;;
71207;SDS011;58938;49.868;8.646;2023-12-29T03:47:16;7.53;;;3.30;;
71207;SDS011;58938;49.868;8.646;2023-12-29T03:49:41;7.32;;;3.05;;
71207;SDS011;58938;49.868;8.646;2023-12-29T03:52:07;4.97;;;3.03;;
71207;SDS011;58938;49.868;8.646;2023-12-29T03:54:33;5.33;;;3.47;;
71207;SDS011;58938;49.868;8.646;2023-12-29T03:57:00;6.07;;;2.97;;
71207;SDS011;58938;49.868;8.646;2023-12-29T03:59:26;5.07;;;3.10;;
71207;SDS011;58938;49.868;8.646;2023-12-29T04:01:51;5.85;;;3.47;;
71207;SDS011;58938;49.868;8.646;2023-12-29T04:04:17;5.27;;;3.17;;
71207;SDS011;58938;49.868;8.646;2023-12-29T04:06:43;6.10;;;2.70;;
71207;SDS011;58938;49.868;8.646;2023-12-29T04:09:09;5.93;;;3.10;;
71207;SDS011;58938;49.868;8.646;2023-12-29T04:11:35;5.28;;;2.75;;
71207;SDS011;58938;49.868;8.646;2023-12-29T04:14:01;6.25;;;4.00;;
71207;SDS011;58938;49.868;8.646;2023-12-29T04:16:27;5.50;;;3.03;;
71207;SDS011;58938;49.868;8.646;2023-12-29T04:18:53;4.90;;;3.05;;
71207;SDS011;58938;49.868;8.646;2023-12-29T04:21:19;4.60;;;3.05;;
71207;SDS011;58938;49.868;8.646;2023-12-29T04:23:45;5.77;;;3.07;;
71207;SDS011;58938;49.868;8.646;2023-12-29T04:26:11;6.47;;;3.15;;
71207;SDS011;58938;49.868;8.646;2023-12-29T04:28:37;6.32;;;3.08;;
71207;SDS011;58938;49.868;8.646;2023-12-29T04:31:03;6.50;;;3.42;;
71207;SDS011;58938;49.868;8.646;2023-12-29T04:33:29;6.77;;;3.77;;
71207;SDS011;58938;49.868;8.646;2023-12-29T04:35:55;7.03;;;3.45;;
71207;SDS011;58938;49.868;8.646;2023-12-29T04:38:21;5.80;;;3.95;;
71207;SDS011;58938;49.868;8.646;2023-12-29T04:40:47;6.63;;;3.25;;
71207;SDS011;58938;49.868;8.646;2023-12-29T04:43:13;5.73;;;3.57;;
71207;SDS011;58938;49.868;8.646;2023-12-29T04:45:39;5.13;;;3.20;;
71207;SDS011;58938;49.868;8.646;2023-12-29T04:48:05;6.97;;;3.35;;
71207;SDS011;58938;49.868;8.646;2023-12-29T04:50:31;6.13;;;3.38;;
71207;SDS011;58938;49.868;8.646;2023-12-29T04:52:57;7.40;;;3.13;;
71207;SDS011;58938;49.868;8.646;2023-12-29T04:55:23;7.28;;;3.17;;
71207;SDS011;58938;49.868;8.646;2023-12-29T04:57:49;9.00;;;3.17;;
71207;SDS011;58938;49.868;8.646;2023-12-29T05:00:15;6.38;;;3.65;;
71207;SDS011;58938;49.868;8.646;2023-12-29T05:02:41;5.60;;;2.87;;
71207;SDS011;58938;49.868;8.646;2023-12-29T05:05:07;6.80;;;3.63;;
71207;SDS011;58938;49.868;8.646;2023-12-29T05:07:34;5.57;;;3.15;;
71207;SDS011;58938;49.868;8.646;2023-12-29T05:10:00;5.28;;;3.53;;
71207;SDS011;58938;49.868;8.646;2023-12-29T05:12:26;6.20;;;3.67;;
71207;SDS011;58938;49.868;8.646;2023-12-29T05:14:52;6.78;;;3.08;;
71207;SDS011;58938;49.868;8.646;2023-12-29T05:17:18;7.60;;;3.67;;
71207;SDS011;58938;49.868;8.646;2023-12-29T05:19:44;5.53;;;3.28;;
71207;SDS011;58938;49.868;8.646;2023-12-29T05:22:10;6.00;;;3.90;;
71207;SDS011;58938;49.868;8.646;2023-12-29T05:24:40;4.83;;;3.07;;
71207;SDS011;58938;49.868;8.646;2023-12-29T05:27:06;5.05;;;2.90;;
71207;SDS011;58938;49.868;8.646;2023-12-29T05:29:32;5.85;;;2.97;;
71207;SDS011;58938;49.868;8.646;2023-12-29T05:31:58;5.23;;;3.13;;
71207;SDS011;58938;49.868;8.646;2023-12-29T05:34:24;7.00;;;3.00;;
71207;SDS011;58938;49.868;8.646;2023-12-29T05:36:50;6.15;;;3.67;;
71207;SDS011;58938;49.868;8.646;2023-12-29T05:39:16;5.45;;;2.90;;
71207;SDS011;58938;49.868;8.646;2023-12-29T05:41:41;6.00;;;2.67;;
71207;SDS011;58938;49.868;8.646;2023-12-29T05:44:08;6.13;;;2.90;;
71207;SDS011;58938;49.868;8.646;2023-12-29T05:46:33;4.28;;;2.50;;
71207;SDS011;58938;49.868;8.646;2023-12-29T05:48:59;5.82;;;3.42;;
71207;SDS011;58938;49.868;8.646;2023-12-29T05:51:26;8.60;;;3.57;;
71207;SDS011;58938;49.868;8.646;2023-12-29T05:53:51;5.90;;;3.13;;
71207;SDS011;58938;49.868;8.646;2023-12-29T05:56:17;7.40;;;3.25;;
71207;SDS011;58938;49.868;8.646;2023-12-29T05:58:43;5.13;;;3.07;;
71207;SDS011;58938;49.868;8.646;2023-12-29T06:01:09;4.80;;;2.50;;
71207;SDS011;58938;49.868;8.646;2023-12-29T06:03:35;4.45;;;3.03;;
71207;SDS011;58938;49.868;8.646;2023-12-29T06:06:02;6.32;;;3.17;;
71207;SDS011;58938;49.868;8.646;2023-12-29T06:08:27;4.47;;;2.77;;
71207;SDS011;58938;49.868;8.646;2023-12-29T06:10:53;6.30;;;2.60;;
71207;SDS011;58938;49.868;8.646;2023-12-29T06:13:19;5.43;;;3.67;;
71207;SDS011;58938;49.868;8.646;2023-12-29T06:15:45;4.80;;;3.03;;
71207;SDS011;58938;49.868;8.646;2023-12-29T06:18:11;5.50;;;3.03;;
71207;SDS011;58938;49.868;8.646;2023-12-29T06:20:38;5.60;;;3.25;;
71207;SDS011;58938;49.868;8.646;2023-12-29T06:23:04;6.53;;;3.05;;
71207;SDS011;58938;49.868;8.646;2023-12-29T06:25:30;5.88;;;3.30;;
71207;SDS011;58938;49.868;8.646;2023-12-29T06:27:57;5.83;;;2.87;;
71207;SDS011;58938;49.868;8.646;2023-12-29T06:30:23;6.47;;;2.95;;
71207;SDS011;58938;49.868;8.646;2023-12-29T06:32:49;5.63;;;3.88;;
71207;SDS011;58938;49.868;8.646;2023-12-29T06:35:17;6.25;;;3.80;;
71207;SDS011;58938;49.868;8.646;2023-12-29T06:37:43;5.97;;;3.70;;
71207;SDS011;58938;49.868;8.646;2023-12-29T06:40:09;7.07;;;4.20;;
71207;SDS011;58938;49.868;8.646;2023-12-29T06:42:35;7.90;;;4.82;;
71207;SDS011;58938;49.868;8.646;2023-12-29T06:45:01;7.53;;;4.25;;
71207;SDS011;58938;49.868;8.646;2023-12-29T06:47:27;7.47;;;4.43;;
71207;SDS011;58938;49.868;8.646;2023-12-29T06:49:53;7.33;;;4.57;;
71207;SDS011;58938;49.868;8.646;2023-12-29T06:52:20;7.75;;;4.45;;
71207;SDS011;58938;49.868;8.646;2023-12-29T06:54:46;8.52;;;4.47;;
71207;SDS011;58938;49.868;8.646;2023-12-29T06:57:12;8.70;;;4.50;;
71207;SDS011;58938;49.868;8.646;2023-12-29T06:59:39;8.27;;;4.53;;
71207;SDS011;58938;49.868;8.646;2023-12-29T07:02:05;6.93;;;4.05;;
71207;SDS011;58938;49.868;8.646;2023-12-29T07:04:31;7.05;;;4.50;;
71207;SDS011;58938;49.868;8.646;2023-12-29T07:06:59;9.20;;;4.32;;
71207;SDS011;58938;49.868;8.646;2023-12-29T07:09:26;7.23;;;4.27;;
71207;SDS011;58938;49.868;8.646;2023-12-29T07:11:52;6.75;;;4.22;;
71207;SDS011;58938;49.868;8.646;2023-12-29T07:14:18;7.53;;;4.15;;
71207;SDS011;58938;49.868;8.646;2023-12-29T07:16:44;6.95;;;3.58;;
71207;SDS011;58938;49.868;8.646;2023-12-29T07:19:10;7.23;;;3.97;;
71207;SDS011;58938;49.868;8.646;2023-12-29T07:21:36;9.52;;;4.53;;
71207;SDS011;58938;49.868;8.646;2023-12-29T07:24:02;6.10;;;3.55;;
71207;SDS011;58938;49.868;8.646;2023-12-29T07:26:28;9.98;;;4.05;;
71207;SDS011;58938;49.868;8.646;2023-12-29T07:28:54;7.77;;;4.00;;
71207;SDS011;58938;49.868;8.646;2023-12-29T07:31:20;7.57;;;4.03;;
71207;SDS011;58938;49.868;8.646;2023-12-29T07:33:46;6.30;;;3.58;;
71207;SDS011;58938;49.868;8.646;2023-12-29T07:36:12;6.70;;;3.88;;
71207;SDS011;58938;49.868;8.646;2023-12-29T07:38:38;6.33;;;3.73;;
71207;SDS011;58938;49.868;8.646;2023-12-29T07:41:04;6.82;;;3.88;;
71207;SDS011;58938;49.868;8.646;2023-12-29T07:43:31;6.75;;;3.70;;
71207;SDS011;58938;49.868;8.646;2023-12-29T07:45:57;5.50;;;2.92;;
71207;SDS011;58938;49.868;8.646;2023-12-29T07:48:23;5.85;;;3.53;;
71207;SDS011;58938;49.868;8.646;2023-12-29T07:50:49;5.77;;;3.13;;
71207;SDS011;58938;49.868;8.646;2023-12-29T07:53:15;6.70;;;3.53;;
71207;SDS011;58938;49.868;8.646;2023-12-29T07:55:41;7.75;;;3.88;;
71207;SDS011;58938;49.868;8.646;2023-12-29T07:58:08;5.87;;;3.00;;
71207;SDS011;58938;49.868;8.646;2023-12-29T08:00:35;5.50;;;3.22;;
71207;SDS011;58938;49.868;8.646;2023-12-29T08:03:01;5.95;;;3.50;;
71207;SDS011;58938;49.868;8.646;2023-12-29T08:05:27;8.23;;;2.95;;
71207;SDS011;58938;49.868;8.646;2023-12-29T08:07:54;6.38;;;2.75;;
71207;SDS011;58938;49.868;8.646;2023-12-29T08:10:19;5.00;;;2.50;;
71207;SDS011;58938;49.868;8.646;2023-12-29T08:12:46;4.78;;;2.40;;
71207;SDS011;58938;49.868;8.646;2023-12-29T08:15:12;5.50;;;3.00;;
71207;SDS011;58938;49.868;8.646;2023-12-29T08:17:38;4.53;;;2.20;;
71207;SDS011;58938;49.868;8.646;2023-12-29T08:20:04;5.88;;;2.42;;
71207;SDS011;58938;49.868;8.646;2023-12-29T08:22:31;6.60;;;2.33;;
71207;SDS011;58938;49.868;8.646;2023-12-29T08:24:57;4.60;;;2.33;;
71207;SDS011;58938;49.868;8.646;2023-12-29T08:27:24;5.15;;;2.50;;
71207;SDS011;58938;49.868;8.646;2023-12-29T08:29:53;4.57;;;2.40;;
71207;SDS011;58938;49.868;8.646;2023-12-29T08:32:19;5.32;;;1.98;;
71207;SDS011;58938;49.868;8.646;2023-12-29T08:34:45;5.47;;;2.53;;
71207;SDS011;58938;49.868;8.646;2023-12-29T08:37:11;6.18;;;2.30;;
71207;SDS011;58938;49.868;8.646;2023-12-29T08:39:40;5.50;;;2.50;;
71207;SDS011;58938;49.868;8.646;2023-12-29T08:42:06;6.70;;;2.10;;
71207;SDS011;58938;49.868;8.646;2023-12-29T08:44:32;4.90;;;2.60;;
71207;SDS011;58938;49.868;8.646;2023-12-29T08:46:58;5.60;;;2.17;;
71207;SDS011;58938;49.868;8.646;2023-12-29T08:49:24;4.80;;;2.78;;
71207;SDS011;58938;49.868;8.646;2023-12-29T08:51:50;5.88;;;2.60;;
71207;SDS011;58938;49.868;8.646;2023-12-29T08:54:16;5.20;;;2.17;;
71207;SDS011;58938;49.868;8.646;2023-12-29T08:56:42;6.43;;;2.45;;
71207;SDS011;58938;49.868;8.646;2023-12-29T08:59:08;6.43;;;2.53;;
71207;SDS011;58938;49.868;8.646;2023-12-29T09:01:34;5.63;;;2.10;;
71207;SDS011;58938;49.868;8.646;2023-12-29T09:04:00;5.57;;;2.45;;
71207;SDS011;58938;49.868;8.646;2023-12-29T09:06:26;5.20;;;2.10;;
71207;SDS011;58938;49.868;8.646;2023-12-29T09:08:52;4.93;;;2.47;;
71207;SDS011;58938;49.868;8.646;2023-12-29T09:11:18;8.87;;;2.20;;
71207;SDS011;58938;49.868;8.646;2023-12-29T09:13:45;6.65;;;2.55;;
71207;SDS011;58938;49.868;8.646;2023-12-29T09:16:11;5.32;;;2.42;;
71207;SDS011;58938;49.868;8.646;2023-12-29T09:18:37;4.18;;;2.30;;
71207;SDS011;58938;49.868;8.646;2023-12-29T09:21:03;5.93;;;2.70;;
71207;SDS011;58938;49.868;8.646;2023-12-29T09:23:29;4.13;;;2.20;;
71207;SDS011;58938;49.868;8.646;2023-12-29T09:25:55;6.90;;;2.47;;
71207;SDS011;58938;49.868;8.646;2023-12-29T09:28:21;5.78;;;2.03;;
71207;SDS011;58938;49.868;8.646;2023-12-29T09:30:47;5.18;;;2.67;;
71207;SDS011;58938;49.868;8.646;2023-12-29T09:33:13;5.60;;;2.00;;
71207;SDS011;58938;49.868;8.646;2023-12-29T09:35:39;5.13;;;2.25;;
71207;SDS011;58938;49.868;8.646;2023-12-29T09:38:05;4.90;;;2.67;;
71207;SDS011;58938;49.868;8.646;2023-12-29T09:40:32;5.38;;;3.00;;
71207;SDS011;58938;49.868;8.646;2023-12-29T09:42:58;5.37;;;2.27;;
71207;SDS011;58938;49.868;8.646;2023-12-29T09:45:24;5.18;;;2.10;;
71207;SDS011;58938;49.868;8.646;2023-12-29T09:47:51;6.90;;;2.45;;
71207;SDS011;58938;49.868;8.646;2023-12-29T09:50:18;5.00;;;1.88;;
71207;SDS011;58938;49.868;8.646;2023-12-29T09:52:45;7.13;;;2.58;;
71207;SDS011;58938;49.868;8.646;2023-12-29T09:55:14;6.13;;;2.27;;
71207;SDS011;58938;49.868;8.646;2023-12-29T09:57:40;6.00;;;2.35;;
71207;SDS011;58938;49.868;8.646;2023-12-29T10:00:09;5.22;;;3.03;;
71207;SDS011;58938;49.868;8.646;2023-12-29T10:02:36;5.63;;;2.75;;
71207;SDS011;58938;49.868;8.646;2023-12-29T10:05:03;6.00;;;2.60;;
71207;SDS011;58938;49.868;8.646;2023-12-29T10:07:29;4.47;;;2.30;;
71207;SDS011;58938;49.868;8.646;2023-12-29T10:09:57;4.57;;;2.13;;
71207;SDS011;58938;49.868;8.646;2023-12-29T10:12:24;4.88;;;2.78;;
71207;SDS011;58938;49.868;8.646;2023-12-29T10:22:54;6.85;;;2.63;;
71207;SDS011;58938;49.868;8.646;2023-12-29T10:25:25;5.47;;;3.00;;
71207;SDS011;58938;49.868;8.646;2023-12-29T10:27:51;5.68;;;3.03;;
71207;SDS011;58938;49.868;8.646;2023-12-29T10:30:18;5.63;;;3.38;;
71207;SDS011;58938;49.868;8.646;2023-12-29T10:32:48;8.40;;;3.67;;
71207;SDS011;58938;49.868;8.646;2023-12-29T10:35:15;5.57;;;2.80;;
71207;SDS011;58938;49.868;8.646;2023-12-29T10:37:41;4.20;;;2.35;;
71207;SDS011;58938;49.868;8.646;2023-12-29T10:40:07;6.05;;;2.30;;
71207;SDS011;58938;49.868;8.646;2023-12-29T10:42:33;4.35;;;2.08;;
71207;SDS011;58938;49.868;8.646;2023-12-29T10:45:06;4.40;;;2.30;;
71207;SDS011;58938;49.868;8.646;2023-12-29T10:47:32;5.10;;;2.30;;
71207;SDS011;58938;49.868;8.646;2023-12-29T10:50:01;5.30;;;2.78;;
71207;SDS011;58938;49.868;8.646;2023-12-29T10:52:28;5.47;;;2.13;;
71207;SDS011;58938;49.868;8.646;2023-12-29T10:55:03;5.00;;;2.67;;
71207;SDS011;58938;49.868;8.646;2023-12-29T10:57:29;6.90;;;2.17;;
71207;SDS011;58938;49.868;8.646;2023-12-29T10:59:55;4.50;;;1.85;;
71207;SDS011;58938;49.868;8.646;2023-12-29T11:02:21;6.38;;;1.98;;
71207;SDS011;58938;49.868;8.646;2023-12-29T11:04:47;6.00;;;2.38;;
71207;SDS011;58938;49.868;8.646;2023-12-29T11:07:15;5.67;;;2.17;;
71207;SDS011;58938;49.868;8.646;2023-12-29T11:09:41;4.45;;;2.17;;
71207;SDS011;58938;49.868;8.646;2023-12-29T11:12:07;4.32;;;2.13;;
71207;SDS011;58938;49.868;8.646;2023-12-29T11:14:35;3.95;;;2.17;;
71207;SDS011;58938;49.868;8.646;2023-12-29T11:17:01;5.05;;;2.67;;
71207;SDS011;58938;49.868;8.646;2023-12-29T11:19:29;5.17;;;2.17;;
71207;SDS011;58938;49.868;8.646;2023-12-29T11:21:55;3.78;;;1.92;;
71207;SDS011;58938;49.868;8.646;2023-12-29T11:24:22;4.32;;;2.22;;
71207;SDS011;58938;49.868;8.646;2023-12-29T11:26:51;5.43;;;1.92;;
71207;SDS011;58938;49.868;8.646;2023-12-29T11:29:17;3.97;;;2.22;;
71207;SDS011;58938;49.868;8.646;2023-12-29T11:31:44;4.57;;;2.33;;
71207;SDS011;58938;49.868;8.646;2023-12-29T11:34:12;4.22;;;2.38;;
71207;SDS011;58938;49.868;8.646;2023-12-29T11:36:44;5.13;;;2.70;;
71207;SDS011;58938;49.868;8.646;2023-12-29T11:39:20;4.50;;;2.25;;
71207;SDS011;58938;49.868;8.646;2023-12-29T11:41:55;4.65;;;2.50;;
71207;SDS011;58938;49.868;8.646;2023-12-29T11:44:25;4.23;;;2.27;;
71207;SDS011;58938;49.868;8.646;2023-12-29T11:46:52;5.82;;;2.35;;
71207;SDS011;58938;49.868;8.646;2023-12-29T11:49:18;4.78;;;2.38;;
71207;SDS011;58938;49.868;8.646;2023-12-29T11:51:48;18.85;;;6.90;;
71207;SDS011;58938;49.868;8.646;2023-12-29T11:54:24;6.00;;;3.13;;
71207;SDS011;58938;49.868;8.646;2023-12-29T11:56:50;13.90;;;5.63;;
71207;SDS011;58938;49.868;8.646;2023-12-29T11:59:20;4.97;;;2.88;;
71207;SDS011;58938;49.868;8.646;2023-12-29T12:01:57;4.85;;;1.80;;
71207;SDS011;58938;49.868;8.646;2023-12-29T12:07:08;3.80;;;2.47;;
71207;SDS011;58938;49.868;8.646;2023-12-29T12:09:34;4.73;;;2.13;;
71207;SDS011;58938;49.868;8.646;2023-12-29T12:12:01;4.55;;;2.28;;
71207;SDS011;58938;49.868;8.646;2023-12-29T12:14:44;5.00;;;2.42;;
71207;SDS011;58938;49.868;8.646;2023-12-29T12:17:10;4.97;;;2.20;;
71207;SDS011;58938;49.868;8.646;2023-12-29T12:19:36;3.85;;;2.08;;
71207;SDS011;58938;49.868;8.646;2023-12-29T12:22:03;4.97;;;2.20;;
71207;SDS011;58938;49.868;8.646;2023-12-29T12:24:31;5.20;;;2.10;;
71207;SDS011;58938;49.868;8.646;2023-12-29T12:26:58;4.50;;;2.25;;
71207;SDS011;58938;49.868;8.646;2023-12-29T12:29:24;6.03;;;2.25;;
71207;SDS011;58938;49.868;8.646;2023-12-29T12:34:19;7.27;;;2.30;;
71207;SDS011;58938;49.868;8.646;2023-12-29T12:36:51;3.60;;;2.08;;
71207;SDS011;58938;49.868;8.646;2023-12-29T12:39:17;4.38;;;2.10;;
71207;SDS011;58938;49.868;8.646;2023-12-29T12:41:43;6.10;;;2.13;;
71207;SDS011;58938;49.868;8.646;2023-12-29T12:44:10;4.63;;;2.10;;
71207;SDS011;58938;49.868;8.646;2023-12-29T12:46:39;3.93;;;1.53;;
71207;SDS011;58938;49.868;8.646;2023-12-29T12:49:06;5.10;;;2.45;;
71207;SDS011;58938;49.868;8.646;2023-12-29T12:51:32;4.72;;;2.20;;
71207;SDS011;58938;49.868;8.646;2023-12-29T12:53:59;3.88;;;2.15;;
71207;SDS011;58938;49.868;8.646;2023-12-29T12:56:25;5.50;;;1.80;;
71207;SDS011;58938;49.868;8.646;2023-12-29T12:58:54;4.80;;;2.33;;
71207;SDS011;58938;49.868;8.646;2023-12-29T13:01:20;9.63;;;2.53;;
71207;SDS011;58938;49.868;8.646;2023-12-29T13:03:46;4.22;;;1.67;;
71207;SDS011;58938;49.868;8.646;2023-12-29T13:06:13;4.40;;;1.80;;
71207;SDS011;58938;49.868;8.646;2023-12-29T13:08:39;4.27;;;1.83;;
71207;SDS011;58938;49.868;8.646;2023-12-29T13:11:04;5.57;;;2.10;;
71207;SDS011;58938;49.868;8.646;2023-12-29T13:13:41;4.80;;;2.38;;
71207;SDS011;58938;49.868;8.646;2023-12-29T13:16:07;4.55;;;2.13;;
71207;SDS011;58938;49.868;8.646;2023-12-29T13:18:33;4.88;;;2.45;;
71207;SDS011;58938;49.868;8.646;2023-12-29T13:21:00;5.00;;;2.10;;
71207;SDS011;58938;49.868;8.646;2023-12-29T13:23:27;3.80;;;2.55;;
71207;SDS011;58938;49.868;8.646;2023-12-29T13:25:57;3.42;;;1.88;;
71207;SDS011;58938;49.868;8.646;2023-12-29T13:28:23;4.00;;;2.10;;
71207;SDS011;58938;49.868;8.646;2023-12-29T13:30:49;3.95;;;1.88;;
71207;SDS011;58938;49.868;8.646;2023-12-29T13:33:17;3.80;;;2.00;;
71207;SDS011;58938;49.868;8.646;2023-12-29T13:35:50;3.97;;;1.98;;
71207;SDS011;58938;49.868;8.646;2023-12-29T13:38:25;3.83;;;2.08;;
71207;SDS011;58938;49.868;8.646;2023-12-29T13:41:02;3.67;;;2.00;;
71207;SDS011;58938;49.868;8.646;2023-12-29T13:43:29;5.07;;;2.22;;
71207;SDS011;58938;49.868;8.646;2023-12-29T13:45:58;5.20;;;1.87;;
71207;SDS011;58938;49.868;8.646;2023-12-29T13:48:24;3.75;;;1.92;;
71207;SDS011;58938;49.868;8.646;2023-12-29T13:50:51;4.32;;;1.90;;
71207;SDS011;58938;49.868;8.646;2023-12-29T13:53:20;4.07;;;2.30;;
71207;SDS011;58938;49.868;8.646;2023-12-29T13:55:47;4.40;;;2.08;;
71207;SDS011;58938;49.868;8.646;2023-12-29T13:58:13;4.27;;;2.17;;
71207;SDS011;58938;49.868;8.646;2023-12-29T14:00:40;4.75;;;1.98;;
71207;SDS011;58938;49.868;8.646;2023-12-29T14:03:06;4.05;;;1.90;;
71207;SDS011;58938;49.868;8.646;2023-12-29T14:05:48;5.05;;;2.00;;
71207;SDS011;58938;49.868;8.646;2023-12-29T14:08:32;4.90;;;1.90;;
71207;SDS011;58938;49.868;8.646;2023-12-29T14:11:06;6.37;;;1.70;;
71207;SDS011;58938;49.868;8.646;2023-12-29T14:13:33;4.03;;;2.17;;
71207;SDS011;58938;49.868;8.646;2023-12-29T14:15:59;5.55;;;2.40;;
71207;SDS011;58938;49.868;8.646;2023-12-29T14:18:42;4.47;;;1.90;;
71207;SDS011;58938;49.868;8.646;2023-12-29T14:21:23;4.75;;;2.20;;
71207;SDS011;58938;49.868;8.646;2023-12-29T14:26:39;3.83;;;2.30;;
71207;SDS011;58938;49.868;8.646;2023-12-29T14:29:09;3.75;;;2.13;;
71207;SDS011;58938;49.868;8.646;2023-12-29T14:31:36;3.72;;;2.05;;
71207;SDS011;58938;49.868;8.646;2023-12-29T14:34:03;4.10;;;2.28;;
71207;SDS011;58938;49.868;8.646;2023-12-29T14:36:29;4.60;;;2.40;;
71207;SDS011;58938;49.868;8.646;2023-12-29T14:38:55;5.55;;;2.20;;
71207;SDS011;58938;49.868;8.646;2023-12-29T14:41:22;4.10;;;2.20;;
71207;SDS011;58938;49.868;8.646;2023-12-29T14:43:49;5.32;;;2.13;;
71207;SDS011;58938;49.868;8.646;2023-12-29T14:46:15;4.15;;;2.33;;
71207;SDS011;58938;49.868;8.646;2023-12-29T14:48:41;4.37;;;2.13;;
71207;SDS011;58938;49.868;8.646;2023-12-29T14:51:07;4.32;;;2.20;;
71207;SDS011;58938;49.868;8.646;2023-12-29T14:53:33;3.80;;;1.88;;
71207;SDS011;58938;49.868;8.646;2023-12-29T14:55:59;4.80;;;2.33;;
71207;SDS011;58938;49.868;8.646;2023-12-29T14:58:25;5.63;;;2.30;;
71207;SDS011;58938;49.868;8.646;2023-12-29T15:00:51;7.00;;;2.38;;
71207;SDS011;58938;49.868;8.646;2023-12-29T15:03:17;5.05;;;2.70;;